Time;durP1;ratioP1;P1;durP2;ratioP2;P2;SDS_P1;SDS_P2;PMS_P1;PMS_P2;Temp;Humidity;BMP_temperature;BMP_pressure;BME280_temperature;BME280_humidity;BME280_pressure;Samples;Min_cycle;Max_cycle;Signal;HPM_P1;HPM_P2
2023/08/21 00:00:13;;;;;;;5.28;4.45;;;24.50;85.40;;;;;;950801;147;27339;-78
2023/08/21 00:02:37;;;;;;;4.87;4.37;;;24.40;86.40;;;;;;927792;150;27335;-78
2023/08/21 00:05:04;;;;;;;5.85;4.40;;;24.40;88.40;;;;;;951212;147;27382;-78
2023/08/21 00:07:30;;;;;;;5.58;5.08;;;24.40;88.70;;;;;;950542;147;27247;-77
2023/08/21 00:09:57;;;;;;;5.03;4.62;;;24.40;89.80;;;;;;951317;147;27462;-76
2023/08/21 00:12:24;;;;;;;5.33;4.92;;;24.40;90.30;;;;;;950546;147;27342;-77
2023/08/21 00:14:50;;;;;;;4.90;4.37;;;24.40;90.60;;;;;;950779;147;27282;-78
2023/08/21 00:17:17;;;;;;;4.97;4.47;;;24.40;91.00;;;;;;953807;147;27280;-78
2023/08/21 00:19:43;;;;;;;5.83;4.42;;;24.40;91.40;;;;;;964319;146;27311;-78
2023/08/21 00:22:10;;;;;;;7.55;4.53;;;24.30;91.70;;;;;;963788;146;27344;-78
2023/08/21 00:24:37;;;;;;;6.00;4.80;;;24.40;92.10;;;;;;964315;146;27335;-78
2023/08/21 00:27:03;;;;;;;4.97;4.58;;;24.30;92.40;;;;;;964141;145;27307;-77
2023/08/21 00:29:30;;;;;;;5.75;4.87;;;24.30;92.70;;;;;;963885;145;27303;-78
2023/08/21 00:31:56;;;;;;;5.37;4.90;;;24.30;93.10;;;;;;964347;146;27451;-76
2023/08/21 00:34:23;;;;;;;6.08;5.40;;;24.30;93.50;;;;;;963596;145;27347;-78
2023/08/21 00:36:50;;;;;;;6.78;5.08;;;24.30;93.80;;;;;;963698;146;27338;-77
2023/08/21 00:39:16;;;;;;;4.90;4.50;;;24.30;94.00;;;;;;963544;145;27396;-78
2023/08/21 00:41:43;;;;;;;5.92;4.78;;;24.30;94.40;;;;;;964283;146;27420;-77
2023/08/21 00:44:09;;;;;;;6.22;4.37;;;24.30;95.00;;;;;;963946;145;27339;-78
2023/08/21 00:46:36;;;;;;;4.67;4.28;;;24.30;94.90;;;;;;963927;146;27367;-79
2023/08/21 00:49:03;;;;;;;4.90;4.40;;;24.30;95.20;;;;;;963987;146;27325;-78
2023/08/21 00:51:29;;;;;;;4.87;4.45;;;24.30;95.40;;;;;;964199;146;27334;-77
2023/08/21 00:53:56;;;;;;;4.62;4.22;;;24.30;95.70;;;;;;963886;145;27308;-77
2023/08/21 00:56:22;;;;;;;5.37;4.87;;;24.20;96.00;;;;;;942456;149;27481;-78
2023/08/21 00:58:49;;;;;;;5.80;4.58;;;24.20;96.30;;;;;;946999;148;27254;-76
2023/08/21 01:01:15;;;;;;;5.03;4.53;;;24.20;96.50;;;;;;963681;146;27256;-78
2023/08/21 01:03:42;;;;;;;5.55;4.30;;;24.20;96.70;;;;;;963941;145;27310;-77
2023/08/21 01:06:09;;;;;;;4.67;4.25;;;24.20;96.90;;;;;;963357;147;27436;-77
2023/08/21 01:08:44;;;;;;;5.95;3.83;;;24.10;97.00;;;;;;963153;146;27358;-78
2023/08/21 01:11:36;;;;;;;5.28;4.00;;;24.10;97.20;;;;;;962073;146;27392;-77
2023/08/21 01:14:08;;;;;;;4.17;3.80;;;24.10;97.30;;;;;;963147;145;27330;-78
2023/08/21 01:16:35;;;;;;;5.00;4.50;;;24.10;97.30;;;;;;962968;145;27332;-78
2023/08/21 01:19:01;;;;;;;4.42;4.03;;;24.00;97.30;;;;;;955632;147;27346;-77
2023/08/21 01:21:28;;;;;;;5.00;4.20;;;24.00;97.50;;;;;;950209;147;27441;-78
2023/08/21 01:23:55;;;;;;;5.47;4.67;;;24.00;97.70;;;;;;950667;147;28532;-77
2023/08/21 01:26:21;;;;;;;4.72;3.95;;;24.00;97.80;;;;;;951099;147;27725;-77
2023/08/21 01:28:48;;;;;;;4.40;4.00;;;23.90;97.80;;;;;;951476;147;27335;-77
2023/08/21 01:31:26;;;;;;;5.50;4.87;;;23.80;98.00;;;;;;951376;147;27421;-75
2023/08/21 01:33:53;;;;;;;5.10;4.65;;;23.80;98.20;;;;;;951281;147;28303;-78
2023/08/21 01:36:19;;;;;;;4.90;4.50;;;23.70;98.40;;;;;;949702;147;27479;-78
2023/08/21 01:38:46;;;;;;;4.70;4.30;;;23.70;98.60;;;;;;950238;147;27284;-78
2023/08/21 01:41:12;;;;;;;5.08;4.35;;;23.60;98.80;;;;;;951858;147;27423;-76
2023/08/21 01:43:39;;;;;;;5.37;4.87;;;23.60;99.10;;;;;;951426;147;27430;-78
2023/08/21 01:46:06;;;;;;;8.70;4.87;;;23.50;99.20;;;;;;951219;147;27322;-77
2023/08/21 01:48:32;;;;;;;4.20;3.90;;;23.50;99.40;;;;;;951023;147;27317;-77
2023/08/21 01:50:59;;;;;;;5.62;4.35;;;23.50;99.60;;;;;;951095;147;27304;-77
2023/08/21 01:53:25;;;;;;;4.70;4.35;;;23.40;99.80;;;;;;951248;147;27341;-78
2023/08/21 01:55:52;;;;;;;4.65;4.25;;;23.40;99.90;;;;;;950227;147;28397;-78
2023/08/21 01:58:19;;;;;;;4.22;3.90;;;23.30;99.90;;;;;;950358;147;27330;-78
2023/08/21 02:00:48;;;;;;;4.72;4.30;;;23.30;99.90;;;;;;951468;147;27313;-78
2023/08/21 02:03:14;;;;;;;4.75;4.35;;;23.30;99.90;;;;;;951439;147;27434;-77
2023/08/21 02:05:41;;;;;;;4.97;4.58;;;23.20;99.90;;;;;;951062;147;27453;-76
2023/08/21 02:08:08;;;;;;;4.47;4.12;;;23.20;99.90;;;;;;950433;147;27318;-78
2023/08/21 02:10:34;;;;;;;5.05;4.30;;;23.20;99.90;;;;;;950652;147;27728;-76
2023/08/21 02:13:01;;;;;;;5.22;4.72;;;23.20;99.90;;;;;;951110;147;27345;-77
2023/08/21 02:15:27;;;;;;;5.45;4.92;;;23.20;99.90;;;;;;951000;147;27421;-77
2023/08/21 02:17:54;;;;;;;4.92;4.53;;;23.20;99.90;;;;;;949411;147;27375;-77
2023/08/21 02:20:21;;;;;;;5.35;4.85;;;23.10;99.90;;;;;;964114;148;27342;-78
2023/08/21 02:22:47;;;;;;;5.03;4.53;;;23.10;99.90;;;;;;963691;145;27396;-77
2023/08/21 02:25:14;;;;;;;5.50;5.00;;;23.10;99.90;;;;;;964983;145;27355;-75
2023/08/21 02:27:40;;;;;;;6.42;4.65;;;23.10;99.90;;;;;;964418;146;27250;-78
2023/08/21 02:30:07;;;;;;;5.35;4.85;;;23.10;99.90;;;;;;964155;145;27308;-78
2023/08/21 02:32:34;;;;;;;5.28;4.78;;;23.10;99.90;;;;;;963161;146;27384;-77
2023/08/21 02:35:00;;;;;;;5.35;4.87;;;23.10;99.90;;;;;;963706;145;27338;-78
2023/08/21 02:37:27;;;;;;;4.80;4.28;;;23.10;99.90;;;;;;964114;146;27423;-78
2023/08/21 02:39:53;;;;;;;5.45;4.40;;;23.10;99.90;;;;;;963812;146;27399;-78
2023/08/21 02:42:20;;;;;;;4.35;3.98;;;23.10;99.90;;;;;;962352;146;27256;-77
2023/08/21 02:44:47;;;;;;;5.05;4.40;;;23.10;99.90;;;;;;963384;145;27300;-76
2023/08/21 02:47:13;;;;;;;5.62;4.72;;;23.10;99.90;;;;;;963552;146;27430;-78
2023/08/21 02:49:40;;;;;;;5.35;4.30;;;23.10;99.90;;;;;;963435;146;27441;-78
2023/08/21 02:52:06;;;;;;;4.78;4.37;;;23.10;99.90;;;;;;964320;145;27236;-77
2023/08/21 02:54:33;;;;;;;5.12;4.65;;;23.10;99.90;;;;;;964005;146;27292;-77
2023/08/21 02:56:59;;;;;;;5.15;4.65;;;23.10;99.90;;;;;;963852;146;27416;-75
2023/08/21 02:59:26;;;;;;;4.87;4.50;;;23.10;99.90;;;;;;964070;145;27334;-78
2023/08/21 03:01:53;;;;;;;4.60;4.10;;;23.10;99.90;;;;;;963694;146;27280;-78
2023/08/21 03:04:19;;;;;;;4.83;4.40;;;23.10;99.90;;;;;;963088;145;27388;-78
2023/08/21 03:06:46;;;;;;;5.80;4.92;;;23.10;99.90;;;;;;964450;146;27312;-76
2023/08/21 03:09:12;;;;;;;5.08;4.60;;;23.10;99.90;;;;;;963921;146;27389;-78
2023/08/21 03:11:39;;;;;;;4.90;4.50;;;23.10;99.90;;;;;;963687;145;27764;-77
2023/08/21 03:14:06;;;;;;;5.10;4.60;;;23.00;99.90;;;;;;963803;145;27412;-77
2023/08/21 03:16:32;;;;;;;5.05;4.28;;;23.00;99.90;;;;;;964078;146;27353;-77
2023/08/21 03:18:59;;;;;;;4.62;4.10;;;23.00;99.90;;;;;;964381;145;27769;-75
2023/08/21 03:21:25;;;;;;;5.10;4.70;;;23.00;99.90;;;;;;964833;146;27417;-77
2023/08/21 03:23:52;;;;;;;5.55;5.15;;;23.00;99.90;;;;;;964162;145;27304;-77
2023/08/21 03:26:19;;;;;;;5.60;5.20;;;22.90;99.90;;;;;;963372;146;27320;-78
2023/08/21 03:28:45;;;;;;;5.40;5.00;;;22.90;99.90;;;;;;963730;146;27454;-76
2023/08/21 03:31:12;;;;;;;5.17;4.67;;;22.90;99.90;;;;;;964173;146;27362;-78
2023/08/21 03:33:38;;;;;;;7.33;6.60;;;22.90;99.90;;;;;;963792;145;27334;-78
2023/08/21 03:36:05;;;;;;;5.75;5.10;;;22.90;99.90;;;;;;964162;145;27416;-78
2023/08/21 03:38:31;;;;;;;5.58;5.08;;;22.90;99.90;;;;;;963960;147;27310;-77
2023/08/21 03:40:58;;;;;;;5.67;4.97;;;22.90;99.90;;;;;;963757;145;27336;-78
2023/08/21 03:43:25;;;;;;;5.70;5.20;;;22.90;99.90;;;;;;942477;148;27830;-78
2023/08/21 03:45:51;;;;;;;5.83;5.22;;;22.80;99.90;;;;;;963300;145;27311;-78
2023/08/21 03:48:18;;;;;;;6.10;5.58;;;22.80;99.90;;;;;;964166;146;27341;-77
2023/08/21 03:50:44;;;;;;;6.25;5.85;;;22.80;99.90;;;;;;964480;146;27381;-76
2023/08/21 03:53:11;;;;;;;7.17;5.75;;;22.80;99.90;;;;;;963779;146;27786;-78
2023/08/21 03:55:38;;;;;;;6.47;5.87;;;22.80;99.90;;;;;;963559;145;27394;-78
2023/08/21 03:58:04;;;;;;;5.55;5.05;;;22.80;99.90;;;;;;964058;146;27305;-78
2023/08/21 04:00:31;;;;;;;6.22;5.72;;;22.80;99.90;;;;;;964493;145;27311;-77
2023/08/21 04:02:57;;;;;;;6.35;5.72;;;22.80;99.90;;;;;;963666;146;27330;-75
2023/08/21 04:05:24;;;;;;;6.28;5.58;;;22.70;99.90;;;;;;963802;145;27339;-78
2023/08/21 04:07:50;;;;;;;8.78;6.17;;;22.70;99.90;;;;;;964035;146;27369;-78
2023/08/21 04:10:17;;;;;;;6.15;5.55;;;22.70;99.90;;;;;;963160;146;27310;-77
2023/08/21 04:12:44;;;;;;;7.58;5.67;;;22.70;99.90;;;;;;963098;145;27610;-76
2023/08/21 04:15:10;;;;;;;5.87;5.37;;;22.70;99.90;;;;;;963122;145;27343;-75
2023/08/21 04:17:37;;;;;;;6.15;5.65;;;22.70;99.90;;;;;;946752;149;27445;-75
2023/08/21 04:20:03;;;;;;;6.00;5.50;;;22.70;99.90;;;;;;946195;148;27481;-75
2023/08/21 04:22:30;;;;;;;6.45;5.55;;;22.70;99.90;;;;;;969079;145;27319;-76
2023/08/21 04:24:57;;;;;;;6.92;5.90;;;22.70;99.90;;;;;;969505;145;27756;-76
2023/08/21 04:27:23;;;;;;;5.97;5.47;;;22.70;99.90;;;;;;969256;145;27439;-75
2023/08/21 04:29:50;;;;;;;6.58;5.97;;;22.70;99.90;;;;;;969047;145;27289;-75
2023/08/21 04:32:17;;;;;;;6.35;5.85;;;22.70;99.90;;;;;;968294;145;27322;-74
2023/08/21 04:34:43;;;;;;;6.17;5.60;;;22.70;99.90;;;;;;968806;145;27749;-76
2023/08/21 04:37:10;;;;;;;6.15;5.55;;;22.70;99.90;;;;;;968612;145;27350;-76
2023/08/21 04:39:36;;;;;;;6.87;6.28;;;22.70;99.90;;;;;;969338;145;27422;-75
2023/08/21 04:42:03;;;;;;;7.92;7.03;;;22.70;99.90;;;;;;968485;145;27274;-75
2023/08/21 04:44:29;;;;;;;7.67;6.97;;;22.70;99.90;;;;;;968849;145;27522;-75
2023/08/21 04:46:56;;;;;;;7.28;6.67;;;22.80;99.90;;;;;;969146;145;27402;-75
2023/08/21 04:49:23;;;;;;;7.87;6.90;;;22.80;99.90;;;;;;969194;145;27343;-75
2023/08/21 04:51:49;;;;;;;7.22;6.50;;;22.80;99.90;;;;;;968739;145;27909;-74
2023/08/21 04:54:16;;;;;;;7.03;6.42;;;22.90;99.90;;;;;;968008;145;27738;-75
2023/08/21 04:56:42;;;;;;;6.35;5.75;;;22.90;99.90;;;;;;968820;145;27376;-75
2023/08/21 04:59:09;;;;;;;6.05;5.65;;;22.90;99.90;;;;;;969055;145;27331;-75
2023/08/21 05:01:36;;;;;;;6.20;5.70;;;23.00;99.90;;;;;;968964;145;27501;-75
2023/08/21 05:04:02;;;;;;;6.42;5.92;;;23.10;99.90;;;;;;969069;145;27256;-75
2023/08/21 05:06:29;;;;;;;8.75;6.03;;;23.20;99.90;;;;;;968490;145;27291;-75
2023/08/21 05:08:55;;;;;;;6.42;5.92;;;23.40;99.90;;;;;;969113;145;27455;-75
2023/08/21 05:11:22;;;;;;;8.60;6.90;;;23.60;99.90;;;;;;968882;145;27804;-76
2023/08/21 05:13:48;;;;;;;6.72;6.22;;;23.80;99.90;;;;;;968582;145;27434;-75
2023/08/21 05:16:15;;;;;;;6.33;5.83;;;24.20;99.90;;;;;;968936;145;27311;-75
2023/08/21 05:18:42;;;;;;;6.60;5.65;;;24.50;99.90;;;;;;968755;145;27317;-75
2023/08/21 05:21:08;;;;;;;5.85;5.35;;;24.90;99.90;;;;;;959586;146;27341;-77
2023/08/21 05:23:35;;;;;;;5.40;5.00;;;25.40;99.90;;;;;;951543;147;27800;-74
2023/08/21 05:26:02;;;;;;;6.00;5.45;;;25.90;99.90;;;;;;950801;147;27263;-74
2023/08/21 05:28:28;;;;;;;9.90;5.65;;;26.40;99.90;;;;;;950614;147;27800;-75
2023/08/21 05:30:55;;;;;;;6.55;5.97;;;26.90;99.90;;;;;;950849;147;27322;-75
2023/08/21 05:33:21;;;;;;;6.12;5.55;;;27.30;99.90;;;;;;950871;147;27418;-74
2023/08/21 05:35:48;;;;;;;5.85;5.25;;;27.70;99.90;;;;;;951327;147;27345;-75
2023/08/21 05:38:15;;;;;;;6.15;5.65;;;28.20;99.90;;;;;;951245;147;27484;-74
2023/08/21 05:40:43;;;;;;;5.72;5.15;;;28.60;99.90;;;;;;951473;147;27321;-75
2023/08/21 05:43:08;;;;;;;6.37;5.40;;;29.10;99.80;;;;;;950024;147;27415;-76
2023/08/21 05:45:34;;;;;;;6.25;5.37;;;29.60;98.50;;;;;;951655;147;27349;-76
2023/08/21 05:48:01;;;;;;;6.58;5.17;;;30.10;96.50;;;;;;948730;148;27357;-74
2023/08/21 05:50:28;;;;;;;5.53;5.08;;;30.60;94.70;;;;;;949219;148;27310;-74
2023/08/21 05:52:54;;;;;;;5.60;5.10;;;31.10;92.90;;;;;;949911;148;27263;-75
2023/08/21 05:55:21;;;;;;;5.67;5.15;;;31.50;91.40;;;;;;949231;148;27353;-75
2023/08/21 05:57:47;;;;;;;5.12;4.67;;;31.90;89.20;;;;;;949286;148;27784;-75
2023/08/21 06:00:14;;;;;;;5.22;4.70;;;32.40;86.80;;;;;;948441;148;27457;-75
2023/08/21 06:02:42;;;;;;;5.00;4.60;;;32.90;84.10;;;;;;949215;148;27404;-76
2023/08/21 06:05:07;;;;;;;5.03;4.62;;;33.40;81.50;;;;;;949241;148;27342;-77
2023/08/21 06:07:34;;;;;;;5.65;4.90;;;33.90;79.50;;;;;;948842;148;27386;-74
2023/08/21 06:10:00;;;;;;;4.70;4.35;;;34.40;77.10;;;;;;948855;149;26384;-75
2023/08/21 06:12:27;;;;;;;4.70;4.30;;;34.90;75.40;;;;;;949025;148;26268;-76
2023/08/21 06:14:53;;;;;;;6.40;4.62;;;35.40;73.80;;;;;;947996;148;26328;-77
2023/08/21 06:17:20;;;;;;;5.22;4.80;;;35.90;71.70;;;;;;948962;150;26280;-75
2023/08/21 06:19:47;;;;;;;5.45;5.05;;;36.30;69.30;;;;;;949188;148;26410;-74
2023/08/21 06:22:15;;;;;;;7.35;4.37;;;36.80;67.70;;;;;;945654;148;26316;-75
2023/08/21 06:24:40;;;;;;;4.97;4.45;;;37.20;65.70;;;;;;946103;151;26270;-75
2023/08/21 06:27:06;;;;;;;4.45;4.05;;;37.60;64.20;;;;;;947574;151;26882;-77
2023/08/21 06:29:33;;;;;;;4.90;4.50;;;38.00;62.80;;;;;;946631;151;27913;-74
2023/08/21 06:32:00;;;;;;;4.35;4.05;;;38.30;61.50;;;;;;946521;151;26349;-74
2023/08/21 06:34:26;;;;;;;4.33;4.03;;;38.70;60.50;;;;;;946497;151;26897;-74
2023/08/21 06:36:53;;;;;;;5.33;4.20;;;38.90;59.60;;;;;;947225;151;26207;-76
2023/08/21 06:39:19;;;;;;;4.33;3.92;;;39.40;59.00;;;;;;947249;149;26357;-75
2023/08/21 06:41:46;;;;;;;4.70;4.00;;;39.80;58.20;;;;;;947025;151;28038;-75
2023/08/21 06:44:13;;;;;;;4.50;4.10;;;40.20;57.50;;;;;;946952;151;26172;-76
2023/08/21 06:46:39;;;;;;;4.12;3.67;;;40.60;56.70;;;;;;946564;151;26338;-76
2023/08/21 06:49:06;;;;;;;3.95;3.55;;;41.00;55.80;;;;;;947452;151;26293;-77
2023/08/21 06:51:32;;;;;;;3.62;3.37;;;41.40;55.10;;;;;;946384;151;26292;-75
2023/08/21 06:53:59;;;;;;;4.30;3.60;;;41.80;54.20;;;;;;946507;151;26193;-76
2023/08/21 06:56:25;;;;;;;3.98;3.60;;;42.20;53.10;;;;;;946976;149;26252;-75
2023/08/21 06:58:54;;;;;;;4.47;3.65;;;42.50;52.10;;;;;;946371;148;26245;-76
2023/08/21 07:01:19;;;;;;;5.35;3.83;;;42.80;51.50;;;;;;947269;148;26372;-77
2023/08/21 07:03:45;;;;;;;4.55;3.50;;;43.10;50.80;;;;;;946873;151;26264;-78
2023/08/21 07:06:12;;;;;;;3.92;3.62;;;43.30;50.30;;;;;;946333;151;26224;-75
2023/08/21 07:08:40;;;;;;;4.60;3.60;;;43.70;49.60;;;;;;946104;149;26268;-76
2023/08/21 07:11:05;;;;;;;4.33;3.92;;;43.90;49.00;;;;;;946800;151;26300;-77
2023/08/21 07:13:32;;;;;;;4.90;3.30;;;44.20;48.60;;;;;;947338;149;26295;-75
2023/08/21 07:15:58;;;;;;;3.80;3.50;;;44.40;47.80;;;;;;945441;151;26253;-75
2023/08/21 07:18:25;;;;;;;3.95;3.65;;;44.60;47.30;;;;;;946490;151;26182;-75
2023/08/21 07:20:54;;;;;;;3.70;3.40;;;44.80;46.60;;;;;;946531;151;26663;-78
2023/08/21 07:23:23;;;;;;;3.40;3.10;;;45.00;46.10;;;;;;943506;149;26437;-75
2023/08/21 07:25:50;;;;;;;4.65;3.50;;;45.20;46.00;;;;;;942665;150;26264;-76
2023/08/21 07:28:17;;;;;;;3.55;3.35;;;45.50;45.50;;;;;;943390;148;26318;-76
2023/08/21 07:30:43;;;;;;;3.45;3.15;;;45.80;45.00;;;;;;942909;149;26201;-78
2023/08/21 07:33:10;;;;;;;3.25;3.05;;;46.00;44.50;;;;;;943064;149;26693;-75
2023/08/21 07:35:36;;;;;;;4.05;3.30;;;46.30;44.00;;;;;;943552;149;26255;-75
2023/08/21 07:38:03;;;;;;;3.83;3.20;;;46.60;43.60;;;;;;943096;149;26186;-76
2023/08/21 07:40:30;;;;;;;3.33;3.12;;;46.70;42.90;;;;;;933538;150;26172;-77
2023/08/21 07:42:56;;;;;;;3.67;3.30;;;47.00;42.40;;;;;;925480;150;26378;-76
2023/08/21 07:45:23;;;;;;;4.25;3.22;;;47.20;42.00;;;;;;950660;147;26342;-77
2023/08/21 07:47:49;;;;;;;4.00;3.62;;;47.30;41.70;;;;;;949641;147;26333;-77
2023/08/21 07:50:16;;;;;;;3.72;3.42;;;47.60;41.30;;;;;;950329;147;26220;-77
2023/08/21 07:52:43;;;;;;;3.87;3.58;;;47.80;40.80;;;;;;950626;147;26294;-77
2023/08/21 07:55:09;;;;;;;4.62;3.60;;;47.90;40.30;;;;;;951017;147;26715;-77
2023/08/21 07:57:36;;;;;;;4.55;3.20;;;48.00;40.30;;;;;;950842;147;26234;-77
2023/08/21 08:00:02;;;;;;;3.20;3.00;;;48.20;40.00;;;;;;950098;147;26328;-77
2023/08/21 08:02:29;;;;;;;6.35;3.02;;;48.40;39.70;;;;;;949549;147;26588;-77
2023/08/21 08:04:55;;;;;;;3.47;3.22;;;48.60;39.30;;;;;;949767;147;26366;-77
2023/08/21 08:07:22;;;;;;;3.72;2.92;;;48.80;38.80;;;;;;950985;147;26346;-77
2023/08/21 08:09:49;;;;;;;3.30;3.00;;;49.00;38.60;;;;;;950764;147;26364;-78
2023/08/21 08:12:15;;;;;;;3.72;3.42;;;49.20;38.30;;;;;;951647;147;26159;-77
2023/08/21 08:14:42;;;;;;;3.87;3.10;;;49.30;37.90;;;;;;951332;147;26294;-78
2023/08/21 08:17:09;;;;;;;4.17;3.10;;;49.50;37.60;;;;;;950735;147;26443;-77
2023/08/21 08:19:35;;;;;;;3.17;2.98;;;49.50;37.20;;;;;;950739;147;26349;-77
2023/08/21 08:22:02;;;;;;;3.50;3.20;;;49.70;37.10;;;;;;949922;147;26249;-77
2023/08/21 08:24:28;;;;;;;2.98;2.77;;;49.80;36.70;;;;;;949374;147;26538;-78
2023/08/21 08:26:55;;;;;;;3.10;2.80;;;50.00;36.60;;;;;;950872;147;26272;-77
2023/08/21 08:29:21;;;;;;;3.10;2.62;;;50.00;36.30;;;;;;951921;147;26317;-77
2023/08/21 08:31:48;;;;;;;4.08;3.40;;;50.20;36.30;;;;;;949969;147;26243;-77
2023/08/21 08:34:15;;;;;;;2.95;2.70;;;50.30;35.80;;;;;;949697;147;26804;-77
2023/08/21 08:36:41;;;;;;;3.30;3.00;;;50.50;35.60;;;;;;950437;147;26914;-78
2023/08/21 08:39:08;;;;;;;3.85;3.00;;;50.60;34.60;;;;;;949198;147;26240;-78
2023/08/21 08:41:34;;;;;;;3.30;3.05;;;50.80;35.20;;;;;;949507;147;26190;-78
2023/08/21 08:44:01;;;;;;;3.55;3.25;;;50.90;35.60;;;;;;949713;147;26230;-78
2023/08/21 08:46:27;;;;;;;4.33;3.02;;;51.00;34.60;;;;;;949846;147;26237;-78
2023/08/21 08:48:54;;;;;;;3.10;2.80;;;51.10;34.40;;;;;;950113;147;26270;-77
2023/08/21 08:51:21;;;;;;;3.05;2.85;;;51.30;34.40;;;;;;950871;147;26217;-79
2023/08/21 08:53:47;;;;;;;3.83;3.42;;;51.60;34.20;;;;;;951215;147;26298;-78
2023/08/21 08:56:14;;;;;;;3.92;3.37;;;51.70;33.90;;;;;;950752;147;26167;-79
2023/08/21 08:58:42;;;;;;;3.33;3.02;;;51.80;33.60;;;;;;950053;147;26338;-79
2023/08/21 09:01:07;;;;;;;3.62;3.00;;;52.00;33.30;;;;;;950370;147;26249;-79
2023/08/21 09:03:34;;;;;;;3.22;2.72;;;52.20;33.10;;;;;;951065;147;26151;-79
2023/08/21 09:06:00;;;;;;;3.58;3.27;;;52.40;32.90;;;;;;951701;147;26150;-79
2023/08/21 09:08:27;;;;;;;3.15;2.92;;;52.50;32.60;;;;;;951801;147;26335;-79
2023/08/21 09:10:53;;;;;;;2.77;2.58;;;52.40;32.30;;;;;;950820;147;26254;-79
2023/08/21 09:13:20;;;;;;;3.17;2.87;;;52.50;32.40;;;;;;951390;147;26257;-79
2023/08/21 09:15:49;;;;;;;3.83;2.92;;;52.50;32.10;;;;;;950097;147;26265;-78
2023/08/21 09:18:16;;;;;;;4.03;2.90;;;52.50;31.90;;;;;;950862;147;26283;-79
2023/08/21 09:20:42;;;;;;;3.70;3.40;;;52.60;31.80;;;;;;950369;147;26234;-79
2023/08/21 09:23:09;;;;;;;3.20;3.00;;;52.60;31.60;;;;;;953355;146;26279;-79
2023/08/21 09:25:36;;;;;;;3.12;2.92;;;52.60;31.30;;;;;;963382;145;26230;-79
2023/08/21 09:28:02;;;;;;;3.30;3.00;;;52.50;31.20;;;;;;963304;146;26303;-79
2023/08/21 09:30:29;;;;;;;3.22;3.00;;;52.50;31.40;;;;;;963126;145;26340;-79
2023/08/21 09:32:55;;;;;;;3.45;3.20;;;52.50;31.20;;;;;;963400;146;26613;-79
2023/08/21 09:35:22;;;;;;;3.87;2.87;;;52.40;31.00;;;;;;945578;149;26206;-79
2023/08/21 09:37:48;;;;;;;4.12;2.87;;;52.50;31.00;;;;;;946472;149;26256;-79
2023/08/21 09:40:18;;;;;;;3.08;2.87;;;52.30;30.70;;;;;;944898;149;26248;-78
2023/08/21 09:42:44;;;;;;;5.60;3.30;;;52.30;30.80;;;;;;964305;146;26657;-79
2023/08/21 09:45:11;;;;;;;3.95;3.27;;;52.20;31.00;;;;;;963604;145;26608;-79
2023/08/21 09:47:39;;;;;;;4.10;3.70;;;52.00;30.90;;;;;;963599;145;26228;-79
2023/08/21 09:50:04;;;;;;;3.22;2.92;;;51.90;30.90;;;;;;962864;146;26171;-79
2023/08/21 09:52:31;;;;;;;3.20;2.90;;;51.70;30.90;;;;;;963287;145;26340;-80
2023/08/21 09:54:57;;;;;;;3.65;3.10;;;51.60;31.70;;;;;;963237;145;26236;-79
2023/08/21 09:57:24;;;;;;;3.95;2.98;;;51.30;30.80;;;;;;963311;146;26235;-79
2023/08/21 09:59:55;;;;;;;3.60;3.30;;;51.00;30.40;;;;;;945500;149;26254;-79
2023/08/21 10:02:22;;;;;;;3.62;3.42;;;50.60;30.70;;;;;;962124;145;26255;-79
2023/08/21 10:04:52;;;;;;;5.62;3.62;;;50.10;30.90;;;;;;963653;145;26204;-79
2023/08/21 10:07:16;;;;;;;3.60;3.30;;;49.60;31.00;;;;;;960500;145;26245;-79
2023/08/21 10:09:42;;;;;;;3.92;3.42;;;49.10;31.50;;;;;;963543;145;26294;-79
2023/08/21 10:12:11;;;;;;;3.70;3.40;;;48.60;32.30;;;;;;962760;145;26275;-79
2023/08/21 10:14:38;;;;;;;3.58;3.27;;;48.10;32.00;;;;;;962605;145;26633;-79
2023/08/21 10:17:05;;;;;;;3.80;3.50;;;47.50;32.10;;;;;;965520;145;26184;-78
2023/08/21 10:19:31;;;;;;;3.50;3.20;;;47.10;32.40;;;;;;963471;145;26248;-79
2023/08/21 10:21:59;;;;;;;4.45;4.05;;;46.60;32.80;;;;;;946280;148;26286;-79
2023/08/21 10:24:28;;;;;;;3.67;3.40;;;46.10;33.30;;;;;;946148;148;26417;-79
2023/08/21 10:26:54;;;;;;;3.58;3.37;;;45.70;33.40;;;;;;960392;145;26275;-79
2023/08/21 10:29:20;;;;;;;3.87;3.17;;;45.30;33.50;;;;;;963272;145;26278;-79
2023/08/21 10:31:47;;;;;;;3.65;3.45;;;44.90;33.70;;;;;;962832;146;26363;-79
2023/08/21 10:34:13;;;;;;;3.58;3.37;;;44.50;34.00;;;;;;960671;145;26243;-79
2023/08/21 10:36:40;;;;;;;3.72;3.42;;;44.00;34.30;;;;;;963564;145;28165;-79
2023/08/21 10:39:18;;;;;;;3.83;3.52;;;43.60;34.50;;;;;;942158;149;26259;-79
2023/08/21 10:41:57;;;;;;;4.25;3.85;;;43.20;34.90;;;;;;963380;145;26223;-79
2023/08/21 10:44:42;;;;;;;3.45;3.22;;;42.80;35.10;;;;;;963145;145;26363;-79
2023/08/21 10:47:18;;;;;;;5.37;3.40;;;42.40;35.60;;;;;;946904;149;26272;-79
2023/08/21 10:49:45;;;;;;;4.10;3.45;;;41.90;35.60;;;;;;964716;146;26216;-79
2023/08/21 10:52:11;;;;;;;3.00;2.80;;;41.50;35.90;;;;;;963077;145;26245;-78
2023/08/21 10:54:46;;;;;;;2.72;2.52;;;41.20;36.20;;;;;;963087;146;26224;-78
2023/08/21 10:57:13;;;;;;;3.83;2.55;;;40.80;36.70;;;;;;944887;149;26693;-79
2023/08/21 10:59:39;;;;;;;2.87;2.65;;;40.50;37.00;;;;;;966203;145;26167;-78
2023/08/21 11:02:06;;;;;;;3.40;2.92;;;40.30;36.80;;;;;;961597;145;26236;-78
2023/08/21 11:04:32;;;;;;;2.20;2.00;;;40.00;37.30;;;;;;946284;149;26284;-79
2023/08/21 11:06:59;;;;;;;2.60;2.37;;;39.80;36.90;;;;;;942179;148;26406;-79
2023/08/21 11:09:26;;;;;;;2.02;1.90;;;39.60;36.90;;;;;;963535;145;26403;-78
2023/08/21 11:11:52;;;;;;;1.47;1.32;;;39.40;36.70;;;;;;963591;145;26292;-76
2023/08/21 11:14:19;;;;;;;1.40;1.00;;;39.30;36.00;;;;;;964330;145;26263;-78
2023/08/21 11:16:45;;;;;;;1.72;1.62;;;39.10;35.40;;;;;;963037;145;27427;-75
2023/08/21 11:19:12;;;;;;;2.47;2.37;;;38.90;35.40;;;;;;963479;145;26236;-75
2023/08/21 11:21:39;;;;;;;3.02;2.77;;;38.80;36.50;;;;;;964022;145;26220;-76
2023/08/21 11:24:05;;;;;;;3.02;2.77;;;38.60;37.40;;;;;;963429;145;26156;-78
2023/08/21 11:26:32;;;;;;;2.80;2.60;;;38.50;38.30;;;;;;950341;147;27897;-76
2023/08/21 11:29:01;;;;;;;3.35;3.05;;;38.30;37.70;;;;;;927130;150;26236;-76
2023/08/21 11:31:25;;;;;;;3.52;3.22;;;38.20;38.30;;;;;;951180;147;26326;-75
2023/08/21 11:33:52;;;;;;;3.20;3.00;;;38.10;38.80;;;;;;951465;147;27752;-77
2023/08/21 11:36:18;;;;;;;3.35;3.05;;;38.00;39.10;;;;;;950064;147;26338;-77
2023/08/21 11:38:45;;;;;;;3.20;2.90;;;37.80;39.10;;;;;;949774;147;27410;-75
2023/08/21 11:41:11;;;;;;;2.92;2.72;;;37.70;39.40;;;;;;947414;147;26245;-75
2023/08/21 11:43:38;;;;;;;2.75;2.52;;;37.70;39.50;;;;;;950914;147;27306;-75
2023/08/21 11:46:05;;;;;;;2.87;2.67;;;37.60;39.50;;;;;;950989;147;27406;-77
2023/08/21 11:48:31;;;;;;;3.12;2.75;;;37.40;39.40;;;;;;951202;147;26394;-75
2023/08/21 11:50:58;;;;;;;3.40;2.58;;;37.30;39.70;;;;;;950295;147;27359;-75
2023/08/21 11:53:39;;;;;;;3.70;2.75;;;37.20;39.90;;;;;;951776;147;26238;-74
2023/08/21 11:56:09;;;;;;;3.55;3.25;;;37.10;40.00;;;;;;950620;147;27254;-75
2023/08/21 11:58:41;;;;;;;3.45;2.75;;;37.00;40.20;;;;;;950784;147;27473;-75
2023/08/21 12:01:09;;;;;;;2.65;2.45;;;37.00;40.70;;;;;;950118;147;26349;-75
2023/08/21 12:03:38;;;;;;;3.17;2.80;;;36.90;40.70;;;;;;949226;147;26333;-75
2023/08/21 12:06:10;;;;;;;3.05;2.80;;;36.90;41.00;;;;;;951689;147;27479;-75
2023/08/21 12:08:36;;;;;;;2.70;2.50;;;36.80;41.00;;;;;;951545;147;28014;-74
2023/08/21 12:11:03;;;;;;;2.90;2.50;;;36.80;40.60;;;;;;949924;147;28000;-75
2023/08/21 12:13:30;;;;;;;3.05;2.40;;;36.80;40.40;;;;;;950566;147;26552;-75
2023/08/21 12:15:56;;;;;;;2.77;2.58;;;36.70;40.30;;;;;;950449;147;27257;-75
2023/08/21 12:18:23;;;;;;;3.00;2.80;;;36.80;40.50;;;;;;950098;147;26222;-77
2023/08/21 12:20:49;;;;;;;2.75;2.55;;;36.70;40.60;;;;;;951200;147;27442;-75
2023/08/21 12:23:16;;;;;;;3.47;2.55;;;36.70;41.00;;;;;;927475;150;27357;-75
2023/08/21 12:25:43;;;;;;;2.35;2.15;;;36.70;41.20;;;;;;956795;145;27328;-77
2023/08/21 12:28:09;;;;;;;2.17;2.05;;;36.70;41.10;;;;;;964386;145;26215;-76
2023/08/21 12:30:36;;;;;;;1.92;1.82;;;36.70;40.70;;;;;;963696;145;26307;-74
2023/08/21 12:33:02;;;;;;;2.02;1.87;;;36.70;41.00;;;;;;963773;146;27419;-74
2023/08/21 12:35:29;;;;;;;2.10;2.00;;;36.70;40.30;;;;;;963976;145;26288;-75
2023/08/21 12:37:55;;;;;;;2.02;1.87;;;36.70;40.30;;;;;;963320;145;27417;-76
2023/08/21 12:40:22;;;;;;;2.83;2.22;;;36.60;40.30;;;;;;964328;146;26243;-78
2023/08/21 12:42:50;;;;;;;2.80;2.35;;;36.70;40.40;;;;;;963297;145;26248;-76
2023/08/21 12:45:16;;;;;;;2.27;2.17;;;36.70;40.30;;;;;;947866;148;27331;-76